Time;durP1;ratioP1;P1;durP2;ratioP2;P2;SDS_P1;SDS_P2;PMS_P1;PMS_P2;Temp;Humidity;BMP_temperature;BMP_pressure;BME280_temperature;BME280_humidity;BME280_pressure;Samples;Min_cycle;Max_cycle;Signal;HPM_P1;HPM_P2
2023/01/29 00:00:37;;;;;;;6.30;3.93;;;;;;;;;;5053161;28;20103;-58
2023/01/29 00:03:04;;;;;;;5.00;3.87;;;;;;;;;;5054333;28;20045;-58
2023/01/29 00:05:30;;;;;;;7.53;5.17;;;;;;;;;;5054567;28;20025;-59
2023/01/29 00:07:56;;;;;;;6.40;5.47;;;;;;;;;;5053997;28;20025;-58
2023/01/29 00:10:23;;;;;;;5.93;4.43;;;;;;;;;;5053967;28;20032;-59
2023/01/29 00:12:50;;;;;;;5.47;4.47;;;;;;;;;;5053881;28;20021;-59
2023/01/29 00:15:16;;;;;;;6.07;5.47;;;;;;;;;;5054307;28;20402;-57
2023/01/29 00:17:42;;;;;;;6.67;4.30;;;;;;;;;;5053871;28;20033;-58
2023/01/29 00:20:09;;;;;;;6.30;5.43;;;;;;;;;;5053802;28;20028;-59
2023/01/29 00:22:35;;;;;;;9.10;5.80;;;;;;;;;;5054117;28;20113;-57
2023/01/29 00:25:01;;;;;;;4.30;3.90;;;;;;;;;;5054609;28;20029;-58
2023/01/29 00:27:27;;;;;;;5.67;4.50;;;;;;;;;;5053710;28;20021;-59
2023/01/29 00:30:17;;;;;;;5.53;5.03;;;;;;;;;;5053756;28;20028;-58
2023/01/29 00:32:40;;;;;;;6.30;5.47;;;;;;;;;;5054006;28;20090;-58
2023/01/29 00:35:07;;;;;;;8.23;5.77;;;;;;;;;;5053910;28;20033;-57
2023/01/29 00:37:33;;;;;;;5.47;4.03;;;;;;;;;;5053606;28;20029;-58
2023/01/29 00:39:59;;;;;;;8.67;5.53;;;;;;;;;;5053596;28;20037;-57
2023/01/29 00:45:10;;;;;;;6.60;4.73;;;;;;;;;;5053901;28;20087;-58
2023/01/29 00:47:36;;;;;;;6.97;4.07;;;;;;;;;;5053528;28;20479;-59
2023/01/29 00:50:04;;;;;;;6.17;4.83;;;;;;;;;;5054013;28;20371;-58
2023/01/29 00:52:30;;;;;;;13.37;4.70;;;;;;;;;;5053457;28;20447;-59
2023/01/29 00:54:57;;;;;;;8.50;5.30;;;;;;;;;;5054198;28;20040;-58
2023/01/29 00:57:24;;;;;;;3.90;3.33;;;;;;;;;;5053474;28;20033;-58
2023/01/29 00:59:50;;;;;;;5.53;3.70;;;;;;;;;;5053483;28;20059;-58
2023/01/29 01:05:02;;;;;;;4.60;3.93;;;;;;;;;;5053716;28;20537;-58
2023/01/29 01:07:28;;;;;;;7.07;5.47;;;;;;;;;;5053858;28;20032;-58
2023/01/29 01:12:39;;;;;;;5.50;4.70;;;;;;;;;;5055733;28;20032;-59
2023/01/29 01:15:05;;;;;;;4.93;3.93;;;;;;;;;;5057179;28;20029;-58
2023/01/29 01:17:31;;;;;;;6.67;4.90;;;;;;;;;;5056932;28;20052;-58
2023/01/29 01:19:57;;;;;;;5.33;4.43;;;;;;;;;;5057415;28;20021;-58
2023/01/29 01:22:23;;;;;;;5.37;4.20;;;;;;;;;;5057348;28;20033;-58
2023/01/29 01:24:49;;;;;;;7.50;5.77;;;;;;;;;;5057076;28;20064;-57
2023/01/29 01:27:15;;;;;;;4.00;3.17;;;;;;;;;;5056972;28;20028;-59
2023/01/29 01:29:41;;;;;;;4.47;3.23;;;;;;;;;;5057679;28;20379;-58
2023/01/29 01:32:07;;;;;;;5.67;4.47;;;;;;;;;;5056901;28;20025;-58
2023/01/29 01:34:33;;;;;;;5.57;4.63;;;;;;;;;;5057107;28;20025;-59
2023/01/29 01:36:59;;;;;;;4.67;3.93;;;;;;;;;;5057077;28;20021;-59
2023/01/29 01:39:25;;;;;;;6.90;5.33;;;;;;;;;;5056730;28;20447;-58
2023/01/29 01:41:54;;;;;;;5.90;4.07;;;;;;;;;;5056398;28;20127;-58
2023/01/29 01:44:38;;;;;;;4.50;3.90;;;;;;;;;;5057042;28;20033;-58
2023/01/29 01:47:05;;;;;;;3.97;3.57;;;;;;;;;;5057123;28;20060;-59
2023/01/29 01:49:31;;;;;;;6.77;4.20;;;;;;;;;;5057390;28;20036;-57
2023/01/29 01:51:57;;;;;;;4.90;4.37;;;;;;;;;;5056856;28;20017;-59
2023/01/29 01:54:24;;;;;;;14.00;5.17;;;;;;;;;;5056102;28;20459;-58
2023/01/29 01:56:54;;;;;;;6.67;3.90;;;;;;;;;;5056468;28;20039;-58
2023/01/29 01:59:21;;;;;;;5.40;3.97;;;;;;;;;;5056411;28;20386;-58
2023/01/29 02:01:51;;;;;;;5.57;4.43;;;;;;;;;;5056277;28;20773;-57
2023/01/29 02:10:03;;;;;;;4.90;3.77;;;;;;;;;;5056503;28;20055;-58
2023/01/29 02:12:30;;;;;;;7.13;5.30;;;;;;;;;;5056692;28;20024;-58
2023/01/29 02:14:56;;;;;;;5.00;3.43;;;;;;;;;;5056565;28;20116;-53
2023/01/29 02:17:22;;;;;;;6.63;4.23;;;;;;;;;;5056313;28;20475;-56
2023/01/29 02:20:06;;;;;;;8.13;4.30;;;;;;;;;;5055924;28;20033;-57
2023/01/29 02:22:54;;;;;;;3.70;2.97;;;;;;;;;;5055928;28;20083;-58
2023/01/29 02:25:39;;;;;;;5.20;4.20;;;;;;;;;;5055855;28;20056;-59
2023/01/29 02:28:05;;;;;;;4.37;3.97;;;;;;;;;;5056342;28;20351;-58
2023/01/29 02:30:56;;;;;;;4.23;3.83;;;;;;;;;;5056062;28;20028;-58
2023/01/29 02:33:39;;;;;;;8.07;5.20;;;;;;;;;;5055807;28;20020;-58
2023/01/29 02:36:11;;;;;;;4.57;4.17;;;;;;;;;;5055583;28;20082;-58
2023/01/29 02:38:50;;;;;;;6.10;4.23;;;;;;;;;;5055625;28;20112;-56
2023/01/29 02:41:20;;;;;;;5.87;4.20;;;;;;;;;;5056157;28;20029;-58
2023/01/29 02:43:47;;;;;;;4.28;3.72;;;;;;;;;;5055533;28;20025;-57
2023/01/29 02:46:16;;;;;;;5.90;3.57;;;;;;;;;;5056100;28;20455;-58
2023/01/29 02:48:48;;;;;;;7.40;4.27;;;;;;;;;;5055454;28;20036;-58
2023/01/29 02:51:19;;;;;;;11.97;3.93;;;;;;;;;;5055447;28;20049;-57
2023/01/29 02:53:49;;;;;;;4.40;3.73;;;;;;;;;;5055881;28;20025;-58
2023/01/29 02:56:18;;;;;;;7.18;4.60;;;;;;;;;;5055620;28;20087;-58
2023/01/29 02:58:52;;;;;;;6.37;4.80;;;;;;;;;;5055713;28;20037;-58
2023/01/29 03:01:29;;;;;;;4.97;3.77;;;;;;;;;;5055393;28;20057;-58
2023/01/29 03:03:57;;;;;;;3.43;3.00;;;;;;;;;;5055468;28;20416;-58
2023/01/29 03:06:35;;;;;;;5.70;4.43;;;;;;;;;;5055463;28;20036;-58
2023/01/29 03:09:07;;;;;;;4.87;4.27;;;;;;;;;;5053689;28;20033;-56
2023/01/29 03:11:41;;;;;;;6.20;4.23;;;;;;;;;;5054931;28;20490;-56
2023/01/29 03:14:13;;;;;;;9.20;4.83;;;;;;;;;;5054776;28;20037;-55
2023/01/29 03:16:40;;;;;;;4.67;4.20;;;;;;;;;;5055254;28;20032;-55
2023/01/29 03:19:16;;;;;;;4.53;3.27;;;;;;;;;;5055163;28;20099;-56
2023/01/29 03:21:58;;;;;;;6.13;4.80;;;;;;;;;;5054721;28;20025;-56
2023/01/29 03:32:47;;;;;;;5.33;3.50;;;;;;;;;;5054657;28;20028;-58
2023/01/29 03:35:13;;;;;;;6.00;3.83;;;;;;;;;;5054503;28;20021;-57
2023/01/29 03:37:42;;;;;;;6.77;5.37;;;;;;;;;;5054565;28;20048;-58
2023/01/29 03:40:08;;;;;;;5.07;4.57;;;;;;;;;;5054988;28;20024;-57
2023/01/29 03:42:37;;;;;;;5.80;4.90;;;;;;;;;;5054456;28;20090;-55
2023/01/29 03:45:10;;;;;;;4.17;3.77;;;;;;;;;;5054717;28;20036;-58
2023/01/29 03:47:51;;;;;;;6.87;4.90;;;;;;;;;;5054639;28;20029;-57
2023/01/29 03:50:16;;;;;;;;;;;;;;;;;;5054718;28;20070;-55
2023/01/29 03:52:55;;;;;;;5.90;5.17;;;;;;;;;;5054313;28;19942;-57
2023/01/29 03:55:42;;;;;;;7.53;4.37;;;;;;;;;;5054533;28;20474;-58
2023/01/29 03:58:08;;;;;;;5.17;4.00;;;;;;;;;;5054274;28;20029;-58
2023/01/29 04:00:38;;;;;;;6.47;3.80;;;;;;;;;;5054145;28;20029;-58
2023/01/29 04:03:07;;;;;;;6.38;4.63;;;;;;;;;;5054930;28;20098;-58
2023/01/29 04:05:37;;;;;;;5.90;4.50;;;;;;;;;;5054549;28;20033;-58
2023/01/29 04:08:10;;;;;;;3.65;3.25;;;;;;;;;;5054347;28;20036;-56
2023/01/29 04:10:38;;;;;;;9.03;4.57;;;;;;;;;;5054041;28;20028;-58
2023/01/29 04:13:07;;;;;;;4.13;3.73;;;;;;;;;;5054425;28;20024;-56
2023/01/29 04:15:34;;;;;;;5.03;3.40;;;;;;;;;;5053926;28;20033;-59
2023/01/29 04:18:01;;;;;;;7.00;3.80;;;;;;;;;;5054383;28;20352;-58
2023/01/29 04:20:27;;;;;;;6.67;5.37;;;;;;;;;;5053571;28;20090;-58
2023/01/29 04:22:53;;;;;;;5.40;4.07;;;;;;;;;;5053801;28;20032;-58
2023/01/29 04:25:27;;;;;;;9.13;3.63;;;;;;;;;;5054647;28;20025;-59
2023/01/29 04:28:32;;;;;;;6.27;4.17;;;;;;;;;;5054270;28;20382;-58
2023/01/29 04:31:03;;;;;;;5.40;3.93;;;;;;;;;;5031677;28;20053;-58
2023/01/29 04:33:37;;;;;;;4.93;4.00;;;;;;;;;;5031538;28;20105;-58
2023/01/29 04:36:10;;;;;;;5.80;4.23;;;;;;;;;;5044014;28;20041;-57
2023/01/29 04:38:54;;;;;;;7.77;4.53;;;;;;;;;;5053758;28;20455;-58
2023/01/29 04:41:23;;;;;;;5.50;4.53;;;;;;;;;;5053632;28;20025;-58
2023/01/29 04:44:15;;;;;;;5.60;4.37;;;;;;;;;;5053715;28;20017;-58
2023/01/29 04:46:50;;;;;;;18.73;4.97;;;;;;;;;;5053310;28;20463;-58
2023/01/29 04:49:25;;;;;;;4.77;3.80;;;;;;;;;;5058053;28;20082;-57
2023/01/29 04:51:59;;;;;;;5.73;3.03;;;;;;;;;;5057757;28;20429;-58
2023/01/29 04:54:28;;;;;;;4.30;3.60;;;;;;;;;;5057924;28;20459;-56
2023/01/29 04:57:05;;;;;;;7.27;3.97;;;;;;;;;;5057645;28;20033;-54
2023/01/29 04:59:34;;;;;;;4.63;3.83;;;;;;;;;;5057962;28;20028;-56
2023/01/29 05:02:01;;;;;;;6.70;4.23;;;;;;;;;;5057587;28;20057;-59
2023/01/29 05:04:29;;;;;;;4.77;3.80;;;;;;;;;;5057533;28;20029;-58
2023/01/29 05:06:55;;;;;;;5.53;4.10;;;;;;;;;;5057956;28;20033;-56
2023/01/29 05:09:21;;;;;;;4.30;3.57;;;;;;;;;;5057580;28;20439;-56
2023/01/29 05:11:48;;;;;;;7.17;4.40;;;;;;;;;;5057314;28;20065;-58
2023/01/29 05:14:17;;;;;;;7.57;5.47;;;;;;;;;;5057472;28;20021;-58
2023/01/29 05:16:44;;;;;;;9.63;4.67;;;;;;;;;;5057214;28;20496;-58
2023/01/29 05:19:14;;;;;;;5.10;4.23;;;;;;;;;;5057278;28;20029;-57
2023/01/29 05:21:41;;;;;;;4.75;4.22;;;;;;;;;;5057458;28;20102;-56
2023/01/29 05:24:13;;;;;;;4.23;3.30;;;;;;;;;;5057714;28;20036;-58
2023/01/29 05:29:24;;;;;;;7.60;5.73;;;;;;;;;;5057402;28;20417;-57
2023/01/29 05:31:50;;;;;;;6.57;3.87;;;;;;;;;;5057491;28;20017;-55
2023/01/29 05:34:16;;;;;;;4.87;4.03;;;;;;;;;;5057394;28;20066;-58
2023/01/29 05:36:42;;;;;;;5.10;4.23;;;;;;;;;;5057684;28;20029;-58
2023/01/29 05:39:08;;;;;;;5.30;3.80;;;;;;;;;;5056828;28;20488;-58
2023/01/29 05:41:34;;;;;;;5.20;4.03;;;;;;;;;;5055588;28;20028;-58
2023/01/29 05:44:00;;;;;;;5.17;4.37;;;;;;;;;;5056824;28;20033;-58
2023/01/29 05:46:26;;;;;;;4.00;3.37;;;;;;;;;;5057045;28;20442;-56
2023/01/29 05:48:52;;;;;;;5.47;4.07;;;;;;;;;;5056671;28;20447;-58
2023/01/29 05:51:18;;;;;;;7.73;2.97;;;;;;;;;;5057189;28;20359;-57
2023/01/29 05:53:44;;;;;;;4.10;3.70;;;;;;;;;;5056304;28;20017;-57
2023/01/29 05:56:10;;;;;;;5.60;3.27;;;;;;;;;;5057288;28;20028;-58
2023/01/29 05:58:36;;;;;;;4.60;3.37;;;;;;;;;;5056677;28;20447;-59
2023/01/29 06:01:28;;;;;;;4.60;4.07;;;;;;;;;;5056016;28;20052;-59
2023/01/29 06:03:54;;;;;;;6.23;4.63;;;;;;;;;;5055519;28;20455;-58
2023/01/29 06:06:20;;;;;;;7.53;4.63;;;;;;;;;;5056333;28;20099;-58
2023/01/29 06:08:47;;;;;;;5.63;4.50;;;;;;;;;;5056233;28;20052;-59
2023/01/29 06:11:13;;;;;;;6.03;3.67;;;;;;;;;;5056275;28;20078;-57
2023/01/29 06:13:39;;;;;;;7.13;4.47;;;;;;;;;;5056732;28;20028;-59
2023/01/29 06:16:09;;;;;;;6.87;4.57;;;;;;;;;;5056888;28;20032;-58
2023/01/29 06:18:36;;;;;;;6.90;4.57;;;;;;;;;;5056719;28;20037;-57
2023/01/29 06:21:05;;;;;;;7.10;5.57;;;;;;;;;;5056847;28;20025;-58
2023/01/29 06:23:32;;;;;;;6.47;5.60;;;;;;;;;;5056100;28;20102;-58
2023/01/29 06:26:01;;;;;;;5.87;3.73;;;;;;;;;;5056764;28;20260;-57
2023/01/29 06:28:27;;;;;;;6.10;5.10;;;;;;;;;;5055884;28;20025;-57
2023/01/29 06:30:53;;;;;;;5.97;3.97;;;;;;;;;;5056135;28;20029;-59
2023/01/29 06:33:19;;;;;;;4.53;3.80;;;;;;;;;;5056622;28;20032;-59
2023/01/29 06:35:45;;;;;;;6.23;4.57;;;;;;;;;;5055771;28;20438;-57
2023/01/29 06:38:11;;;;;;;5.67;4.83;;;;;;;;;;5054849;28;20375;-58
2023/01/29 06:40:38;;;;;;;6.13;4.90;;;;;;;;;;5056003;28;20337;-57
2023/01/29 06:43:03;;;;;;;5.27;4.07;;;;;;;;;;5055540;28;20083;-57
2023/01/29 06:45:29;;;;;;;5.57;4.17;;;;;;;;;;5055860;28;20383;-58
2023/01/29 06:47:56;;;;;;;9.30;4.90;;;;;;;;;;5055404;28;20430;-59
2023/01/29 06:50:22;;;;;;;7.70;4.90;;;;;;;;;;5055835;28;20033;-58
2023/01/29 06:52:48;;;;;;;6.33;4.80;;;;;;;;;;5055805;28;20025;-57
2023/01/29 06:55:14;;;;;;;8.27;5.17;;;;;;;;;;5055454;28;20029;-58
2023/01/29 06:57:39;;;;;;;4.27;3.23;;;;;;;;;;5055813;28;20029;-58
2023/01/29 07:00:06;;;;;;;4.97;3.97;;;;;;;;;;5055446;28;20029;-57
2023/01/29 07:02:32;;;;;;;4.50;3.77;;;;;;;;;;5054686;28;20453;-56
2023/01/29 07:04:58;;;;;;;5.17;4.57;;;;;;;;;;5055584;28;20029;-58
2023/01/29 07:07:24;;;;;;;5.37;4.33;;;;;;;;;;5055719;28;20021;-57
2023/01/29 07:09:49;;;;;;;5.30;3.90;;;;;;;;;;5053232;28;20032;-58
2023/01/29 07:12:15;;;;;;;8.13;4.73;;;;;;;;;;5055619;28;20032;-58
2023/01/29 07:14:41;;;;;;;6.23;4.80;;;;;;;;;;5055301;28;20037;-57
2023/01/29 07:17:07;;;;;;;6.97;5.37;;;;;;;;;;5055211;28;20104;-59
2023/01/29 07:19:33;;;;;;;6.30;4.57;;;;;;;;;;5055278;28;20025;-58
2023/01/29 07:22:02;;;;;;;7.50;5.80;;;;;;;;;;5054925;28;20029;-58
2023/01/29 07:24:27;;;;;;;4.60;3.90;;;;;;;;;;5054905;28;20036;-58
2023/01/29 07:26:54;;;;;;;8.13;5.53;;;;;;;;;;5054758;28;20031;-57
2023/01/29 07:29:19;;;;;;;5.90;3.93;;;;;;;;;;5054739;28;20112;-57
2023/01/29 07:31:45;;;;;;;5.00;4.13;;;;;;;;;;5054753;28;20053;-58
2023/01/29 07:34:11;;;;;;;5.87;4.70;;;;;;;;;;5054634;28;20414;-57
2023/01/29 07:36:37;;;;;;;5.60;4.33;;;;;;;;;;5054939;28;20104;-56
2023/01/29 07:39:03;;;;;;;9.23;4.40;;;;;;;;;;5054451;28;20028;-57
2023/01/29 07:41:29;;;;;;;5.17;4.67;;;;;;;;;;5054797;28;20027;-58
2023/01/29 07:43:55;;;;;;;8.37;6.63;;;;;;;;;;5053206;28;20116;-58
2023/01/29 07:46:21;;;;;;;4.77;4.10;;;;;;;;;;5053662;28;20029;-58
2023/01/29 07:48:47;;;;;;;6.37;5.67;;;;;;;;;;5054360;28;20029;-57
2023/01/29 07:51:13;;;;;;;7.23;6.00;;;;;;;;;;5054399;28;20107;-56
2023/01/29 07:53:39;;;;;;;5.77;4.70;;;;;;;;;;5054380;28;20025;-57
2023/01/29 07:56:05;;;;;;;7.73;6.50;;;;;;;;;;5054984;28;20370;-58
2023/01/29 07:58:31;;;;;;;5.83;4.70;;;;;;;;;;5054536;28;20370;-59
2023/01/29 08:00:57;;;;;;;7.70;4.60;;;;;;;;;;5054701;28;20028;-58
2023/01/29 08:03:23;;;;;;;4.50;3.73;;;;;;;;;;5054814;28;20060;-58
2023/01/29 08:05:49;;;;;;;7.10;4.53;;;;;;;;;;5054402;28;20053;-58
2023/01/29 08:08:15;;;;;;;5.60;4.63;;;;;;;;;;5054535;28;20078;-57
2023/01/29 08:10:42;;;;;;;7.10;5.77;;;;;;;;;;5054025;28;20033;-57
2023/01/29 08:13:08;;;;;;;5.17;4.57;;;;;;;;;;5054585;28;20087;-56
2023/01/29 08:15:34;;;;;;;7.63;5.70;;;;;;;;;;5053810;28;20033;-56
2023/01/29 08:18:03;;;;;;;4.33;3.63;;;;;;;;;;5054119;28;20112;-57
2023/01/29 08:20:29;;;;;;;7.20;5.47;;;;;;;;;;5053793;28;20052;-56
2023/01/29 08:23:05;;;;;;;6.77;5.90;;;;;;;;;;5052645;28;20452;-55
2023/01/29 08:25:32;;;;;;;4.60;3.80;;;;;;;;;;5054419;28;20036;-58
2023/01/29 08:27:59;;;;;;;6.00;5.40;;;;;;;;;;5053620;28;20043;-57
2023/01/29 08:30:26;;;;;;;8.37;6.47;;;;;;;;;;5053621;28;20471;-56
2023/01/29 08:32:52;;;;;;;7.33;4.77;;;;;;;;;;5054153;28;20022;-54
2023/01/29 08:35:18;;;;;;;5.73;5.13;;;;;;;;;;5053559;28;20025;-57
2023/01/29 08:37:44;;;;;;;6.67;5.43;;;;;;;;;;5053541;28;20029;-57
2023/01/29 08:40:12;;;;;;;5.50;5.00;;;;;;;;;;5054300;28;20021;-57
2023/01/29 08:42:40;;;;;;;7.13;5.93;;;;;;;;;;5053288;28;20029;-55
2023/01/29 08:45:06;;;;;;;6.10;4.67;;;;;;;;;;5053637;28;20033;-55
2023/01/29 08:47:32;;;;;;;6.67;4.77;;;;;;;;;;5053621;28;20509;-55
2023/01/29 08:49:58;;;;;;;7.53;4.80;;;;;;;;;;5053597;28;20025;-56
2023/01/29 08:52:24;;;;;;;6.60;3.90;;;;;;;;;;5053728;28;20021;-56
2023/01/29 08:54:50;;;;;;;8.10;5.93;;;;;;;;;;5053408;28;20115;-54
2023/01/29 08:57:16;;;;;;;6.93;6.23;;;;;;;;;;5053447;28;20025;-57
2023/01/29 08:59:42;;;;;;;6.60;4.30;;;;;;;;;;5053268;28;20442;-55
2023/01/29 09:02:09;;;;;;;5.83;5.23;;;;;;;;;;5053400;28;20382;-57
2023/01/29 09:04:35;;;;;;;5.13;4.53;;;;;;;;;;5053743;28;20437;-55
2023/01/29 09:07:01;;;;;;;9.23;6.30;;;;;;;;;;5053207;28;20062;-56
2023/01/29 09:09:27;;;;;;;5.00;4.40;;;;;;;;;;5053160;28;20104;-56
2023/01/29 09:11:53;;;;;;;4.87;4.07;;;;;;;;;;5052967;28;20025;-57
2023/01/29 09:14:19;;;;;;;7.73;5.33;;;;;;;;;;5052737;28;20021;-56
2023/01/29 09:16:45;;;;;;;7.27;6.10;;;;;;;;;;5053903;28;20044;-57
2023/01/29 09:19:11;;;;;;;5.20;4.67;;;;;;;;;;5053518;28;20025;-58
2023/01/29 09:21:40;;;;;;;7.17;5.53;;;;;;;;;;5053120;28;20115;-57
2023/01/29 09:24:06;;;;;;;6.83;5.33;;;;;;;;;;5053177;28;20021;-57
2023/01/29 09:26:35;;;;;;;6.97;4.77;;;;;;;;;;5053294;28;20132;-58
2023/01/29 09:29:01;;;;;;;6.63;5.40;;;;;;;;;;5053267;28;20029;-57
2023/01/29 09:31:27;;;;;;;6.83;5.13;;;;;;;;;;5053485;28;20025;-57
2023/01/29 09:33:53;;;;;;;5.10;3.90;;;;;;;;;;5055568;28;20025;-57
2023/01/29 09:36:19;;;;;;;6.90;5.73;;;;;;;;;;5057298;28;20025;-57
2023/01/29 09:38:45;;;;;;;5.97;5.10;;;;;;;;;;5056864;28;20455;-55
2023/01/29 09:41:29;;;;;;;6.97;6.13;;;;;;;;;;5056801;28;20425;-57
2023/01/29 09:43:58;;;;;;;6.20;5.40;;;;;;;;;;5056739;28;20029;-56
2023/01/29 09:46:30;;;;;;;5.93;5.30;;;;;;;;;;5057270;28;20079;-57
2023/01/29 09:49:08;;;;;;;8.37;5.60;;;;;;;;;;5057293;28;20028;-52
2023/01/29 09:51:37;;;;;;;11.70;6.53;;;;;;;;;;5056583;28;20029;-53
2023/01/29 09:54:24;;;;;;;6.50;5.57;;;;;;;;;;5056158;28;20436;-55
2023/01/29 09:56:52;;;;;;;9.03;6.60;;;;;;;;;;5056653;28;20035;-56
2023/01/29 09:59:19;;;;;;;5.93;5.17;;;;;;;;;;5056418;28;20021;-56
2023/01/29 10:02:03;;;;;;;22.77;13.97;;;;;;;;;;5056387;28;20128;-56
2023/01/29 10:04:32;;;;;;;12.60;8.97;;;;;;;;;;5056386;28;20025;-53
2023/01/29 10:07:11;;;;;;;10.00;8.23;;;;;;;;;;5056644;28;20040;-55
2023/01/29 10:09:48;;;;;;;6.80;5.57;;;;;;;;;;5056543;28;20087;-56
2023/01/29 10:12:29;;;;;;;8.50;6.47;;;;;;;;;;5056845;28;20025;-52
2023/01/29 10:15:16;;;;;;;6.40;5.50;;;;;;;;;;5056355;28;20028;-56
2023/01/29 10:17:56;;;;;;;8.13;6.13;;;;;;;;;;5056637;28;20052;-55
2023/01/29 10:20:35;;;;;;;6.87;5.70;;;;;;;;;;5056040;28;20025;-56
2023/01/29 10:23:13;;;;;;;8.50;5.33;;;;;;;;;;5056783;28;20048;-56
2023/01/29 10:25:40;;;;;;;6.20;5.63;;;;;;;;;;5055838;28;20378;-56
2023/01/29 10:28:16;;;;;;;6.67;5.40;;;;;;;;;;5056464;28;20401;-54
2023/01/29 10:30:46;;;;;;;7.70;5.77;;;;;;;;;;5055912;28;20048;-55
2023/01/29 10:33:17;;;;;;;7.97;6.13;;;;;;;;;;5056615;28;20025;-56
2023/01/29 10:35:43;;;;;;;7.63;6.27;;;;;;;;;;5054512;28;20087;-55
2023/01/29 10:38:36;;;;;;;5.43;4.90;;;;;;;;;;5055753;28;20040;-55
2023/01/29 10:41:02;;;;;;;7.10;6.40;;;;;;;;;;5054572;28;20037;-57
2023/01/29 10:43:50;;;;;;;7.77;6.03;;;;;;;;;;5056098;28;20029;-54
2023/01/29 10:46:37;;;;;;;6.63;5.27;;;;;;;;;;5054955;28;20040;-57
2023/01/29 10:49:14;;;;;;;8.50;5.17;;;;;;;;;;5055903;28;20455;-56
2023/01/29 10:51:40;;;;;;;7.07;5.47;;;;;;;;;;5055888;28;20372;-55
2023/01/29 10:54:17;;;;;;;6.17;5.33;;;;;;;;;;5055209;28;20095;-52
2023/01/29 10:56:45;;;;;;;6.93;6.13;;;;;;;;;;5056049;28;20033;-55
2023/01/29 10:59:17;;;;;;;6.17;5.57;;;;;;;;;;5055155;28;20108;-53
2023/01/29 11:01:43;;;;;;;8.47;7.43;;;;;;;;;;5055119;28;20087;-55
2023/01/29 11:04:11;;;;;;;7.37;5.83;;;;;;;;;;5055317;28;20025;-56
2023/01/29 11:06:37;;;;;;;6.40;5.17;;;;;;;;;;5055491;28;20029;-56
2023/01/29 11:09:12;;;;;;;7.53;6.10;;;;;;;;;;5055076;28;20037;-56
2023/01/29 11:11:45;;;;;;;6.47;5.77;;;;;;;;;;5055115;28;20062;-54
2023/01/29 11:14:18;;;;;;;6.63;5.50;;;;;;;;;;5055921;28;20033;-55
2023/01/29 11:16:46;;;;;;;7.10;5.13;;;;;;;;;;5055978;28;20033;-53
2023/01/29 11:19:12;;;;;;;7.70;5.03;;;;;;;;;;5054906;28;20025;-56
2023/01/29 11:21:50;;;;;;;8.47;5.13;;;;;;;;;;5055428;28;20033;-55
2023/01/29 11:24:17;;;;;;;8.80;5.97;;;;;;;;;;5055143;28;20048;-53
2023/01/29 11:26:44;;;;;;;5.43;4.37;;;;;;;;;;5054818;28;20029;-54
2023/01/29 11:29:28;;;;;;;7.47;5.53;;;;;;;;;;5055293;28;20028;-55
2023/01/29 11:31:54;;;;;;;6.53;5.77;;;;;;;;;;5055038;28;20029;-56
2023/01/29 11:34:21;;;;;;;8.70;5.93;;;;;;;;;;5055200;28;20036;-56
2023/01/29 11:36:56;;;;;;;5.80;5.17;;;;;;;;;;5054884;28;20155;-52
2023/01/29 11:39:23;;;;;;;8.00;5.27;;;;;;;;;;5054967;28;20410;-56
2023/01/29 11:41:52;;;;;;;8.27;6.00;;;;;;;;;;5054464;28;20060;-56
2023/01/29 11:44:19;;;;;;;6.70;4.80;;;;;;;;;;5054848;28;20443;-57
2023/01/29 11:46:45;;;;;;;6.83;5.07;;;;;;;;;;5055000;28;20020;-56
2023/01/29 11:49:31;;;;;;;7.70;5.50;;;;;;;;;;5054266;28;20059;-57
2023/01/29 11:52:00;;;;;;;5.93;5.33;;;;;;;;;;5054700;28;20382;-57
2023/01/29 11:54:28;;;;;;;6.23;5.63;;;;;;;;;;5054146;28;20029;-57
2023/01/29 11:56:55;;;;;;;6.10;5.50;;;;;;;;;;5052342;28;20033;-57
2023/01/29 11:59:21;;;;;;;8.27;6.87;;;;;;;;;;5053940;28;20036;-54
2023/01/29 12:01:47;;;;;;;6.87;4.70;;;;;;;;;;5053570;28;20136;-55
2023/01/29 12:04:19;;;;;;;5.73;4.60;;;;;;;;;;5053827;28;20058;-54
2023/01/29 12:06:47;;;;;;;6.30;5.27;;;;;;;;;;5054115;28;20056;-57
2023/01/29 12:09:18;;;;;;;7.27;6.20;;;;;;;;;;5054507;28;20050;-55
2023/01/29 12:11:44;;;;;;;8.95;7.43;;;;;;;;;;5054026;28;20021;-57
2023/01/29 12:14:32;;;;;;;6.30;5.20;;;;;;;;;;5054366;28;20070;-57
2023/01/29 12:17:08;;;;;;;5.50;4.93;;;;;;;;;;5054034;28;20029;-56
2023/01/29 12:19:37;;;;;;;6.20;5.60;;;;;;;;;;5054160;28;20052;-53
2023/01/29 12:22:14;;;;;;;5.97;5.03;;;;;;;;;;5054315;28;20367;-59
2023/01/29 12:24:52;;;;;;;6.93;5.00;;;;;;;;;;5053860;28;20394;-58
2023/01/29 12:27:31;;;;;;;9.83;5.30;;;;;;;;;;5053707;28;20036;-58
2023/01/29 12:30:09;;;;;;;8.57;6.03;;;;;;;;;;5054082;28;20028;-57
2023/01/29 12:32:51;;;;;;;8.00;5.57;;;;;;;;;;5053963;28;20447;-58
2023/01/29 12:35:30;;;;;;;6.73;5.93;;;;;;;;;;5054020;28;20051;-58
2023/01/29 12:38:13;;;;;;;10.50;5.23;;;;;;;;;;5053490;28;20033;-58
2023/01/29 12:40:52;;;;;;;5.83;4.73;;;;;;;;;;5054193;28;20082;-57
2023/01/29 12:43:27;;;;;;;5.70;5.10;;;;;;;;;;5053589;28;20032;-58
2023/01/29 12:45:54;;;;;;;8.03;4.90;;;;;;;;;;5053999;28;20043;-58
2023/01/29 12:48:24;;;;;;;7.43;6.20;;;;;;;;;;5053550;28;20112;-58
2023/01/29 12:50:52;;;;;;;6.28;4.35;;;;;;;;;;5054381;28;20040;-58
2023/01/29 12:53:24;;;;;;;6.20;5.20;;;;;;;;;;5053471;28;20375;-58
2023/01/29 12:55:57;;;;;;;5.83;5.03;;;;;;;;;;5054223;28;20041;-58
2023/01/29 12:58:35;;;;;;;5.53;4.40;;;;;;;;;;5053451;28;20037;-58
2023/01/29 13:01:21;;;;;;;7.80;7.07;;;;;;;;;;5053217;28;20519;-58
2023/01/29 13:03:57;;;;;;;6.83;6.13;;;;;;;;;;5049817;28;20061;-56
2023/01/29 13:06:29;;;;;;;5.47;4.80;;;;;;;;;;5053387;28;20025;-57
2023/01/29 13:08:58;;;;;;;5.97;4.43;;;;;;;;;;5055755;28;20064;-59
2023/01/29 13:11:36;;;;;;;7.17;6.10;;;;;;;;;;5056201;28;20096;-58
2023/01/29 13:14:27;;;;;;;5.73;4.13;;;;;;;;;;5057032;28;20386;-58
2023/01/29 13:16:57;;;;;;;6.10;4.67;;;;;;;;;;5054840;28;20576;-58
2023/01/29 13:19:32;;;;;;;4.82;3.92;;;;;;;;;;5057493;28;20028;-56
2023/01/29 13:22:00;;;;;;;5.87;5.00;;;;;;;;;;5057214;28;20025;-56
2023/01/29 13:24:33;;;;;;;9.97;5.13;;;;;;;;;;5057482;28;20021;-57
2023/01/29 13:26:59;;;;;;;4.57;3.63;;;;;;;;;;5057250;28;20029;-57
2023/01/29 13:29:28;;;;;;;5.83;4.17;;;;;;;;;;5056858;28;20032;-56
2023/01/29 13:31:55;;;;;;;5.43;4.03;;;;;;;;;;5056904;28;20035;-56
2023/01/29 13:34:27;;;;;;;5.80;4.00;;;;;;;;;;5056923;28;20131;-58
2023/01/29 13:36:57;;;;;;;5.60;4.47;;;;;;;;;;5056747;28;20463;-57
2023/01/29 13:39:30;;;;;;;6.20;3.80;;;;;;;;;;5056756;28;20037;-57
2023/01/29 13:41:57;;;;;;;4.47;3.50;;;;;;;;;;5056655;28;20352;-58
2023/01/29 13:44:23;;;;;;;5.63;3.87;;;;;;;;;;5056980;28;20371;-58
2023/01/29 13:46:52;;;;;;;5.70;3.63;;;;;;;;;;5056986;28;20029;-58
2023/01/29 13:49:31;;;;;;;6.40;4.57;;;;;;;;;;5056669;28;20034;-56
2023/01/29 13:51:57;;;;;;;4.47;3.90;;;;;;;;;;5056881;28;20025;-54
2023/01/29 13:54:25;;;;;;;5.67;4.47;;;;;;;;;;5056943;28;20437;-57
2023/01/29 13:56:54;;;;;;;6.73;5.60;;;;;;;;;;5056226;28;20522;-55
2023/01/29 13:59:38;;;;;;;4.77;3.70;;;;;;;;;;5056436;28;20448;-59
2023/01/29 14:02:18;;;;;;;7.57;4.70;;;;;;;;;;5056446;28;20060;-57
2023/01/29 14:04:44;;;;;;;4.83;3.93;;;;;;;;;;5056794;28;20041;-59
2023/01/29 14:07:28;;;;;;;6.43;5.73;;;;;;;;;;5056766;28;20044;-59
2023/01/29 14:10:02;;;;;;;6.10;4.63;;;;;;;;;;5056370;28;20036;-58
2023/01/29 14:12:32;;;;;;;9.03;5.97;;;;;;;;;;5056145;28;20021;-56
2023/01/29 14:14:58;;;;;;;6.75;4.68;;;;;;;;;;5056727;28;20459;-58
2023/01/29 14:17:25;;;;;;;6.70;5.23;;;;;;;;;;5056062;28;20049;-57
2023/01/29 14:19:52;;;;;;;8.30;4.43;;;;;;;;;;5054700;28;20029;-58
2023/01/29 14:22:20;;;;;;;6.70;4.90;;;;;;;;;;5056179;28;20029;-58
2023/01/29 14:24:46;;;;;;;5.73;4.37;;;;;;;;;;5055849;28;20033;-58
2023/01/29 14:27:19;;;;;;;6.70;4.57;;;;;;;;;;5055853;28;20060;-57
2023/01/29 14:29:45;;;;;;;6.77;5.17;;;;;;;;;;5055777;28;20047;-57
2023/01/29 14:32:19;;;;;;;6.07;5.47;;;;;;;;;;5054476;28;20025;-58
2023/01/29 14:34:48;;;;;;;6.97;6.07;;;;;;;;;;5055718;28;20100;-57
2023/01/29 14:37:14;;;;;;;7.50;5.33;;;;;;;;;;5055606;28;20032;-57
2023/01/29 14:39:50;;;;;;;7.80;4.30;;;;;;;;;;5055434;28;20033;-54
2023/01/29 14:42:22;;;;;;;8.07;5.23;;;;;;;;;;5055657;28;20025;-58
2023/01/29 14:44:56;;;;;;;7.80;5.43;;;;;;;;;;5055658;28;20036;-58
2023/01/29 14:47:34;;;;;;;6.70;4.40;;;;;;;;;;5055868;28;20025;-55
2023/01/29 14:50:02;;;;;;;6.53;5.20;;;;;;;;;;5055541;28;20048;-58
2023/01/29 14:52:38;;;;;;;5.30;4.50;;;;;;;;;;5055490;28;20031;-59
2023/01/29 14:55:14;;;;;;;8.20;4.70;;;;;;;;;;5055635;28;20040;-59
2023/01/29 14:57:41;;;;;;;8.20;5.23;;;;;;;;;;5055173;28;20122;-56
2023/01/29 15:00:15;;;;;;;9.70;5.10;;;;;;;;;;5055357;28;20484;-57
2023/01/29 15:02:43;;;;;;;6.27;5.20;;;;;;;;;;5055945;28;20092;-56
2023/01/29 15:05:16;;;;;;;8.27;4.53;;;;;;;;;;5055820;28;20033;-58
2023/01/29 15:07:53;;;;;;;5.83;4.23;;;;;;;;;;5054848;28;20102;-58
2023/01/29 15:10:21;;;;;;;5.03;4.33;;;;;;;;;;5055249;28;20029;-57
2023/01/29 15:12:47;;;;;;;10.47;4.73;;;;;;;;;;5055045;28;20032;-59
2023/01/29 15:15:13;;;;;;;6.47;4.47;;;;;;;;;;5055834;28;20459;-58
2023/01/29 15:17:49;;;;;;;5.40;4.47;;;;;;;;;;5054891;28;20029;-58
2023/01/29 15:20:28;;;;;;;4.53;4.13;;;;;;;;;;5055522;28;20056;-58
2023/01/29 15:22:54;;;;;;;6.83;5.50;;;;;;;;;;5055028;28;20024;-57
2023/01/29 15:25:20;;;;;;;7.03;4.07;;;;;;;;;;5055211;28;20033;-59